sensor_id;sensor_type;location;lat;lon;timestamp;temperature;humidity
4615;DHT22;2320;51.362;6.946;2022-09-09T00:02:01;16.00;99.90
4615;DHT22;2320;51.362;6.946;2022-09-09T00:09:46;16.00;99.90
4615;DHT22;2320;51.362;6.946;2022-09-09T00:15:13;16.00;99.90
4615;DHT22;2320;51.362;6.946;2022-09-09T00:17:40;16.00;99.90
4615;DHT22;2320;51.362;6.946;2022-09-09T00:20:12;16.00;99.90
4615;DHT22;2320;51.362;6.946;2022-09-09T00:22:38;15.90;99.90
4615;DHT22;2320;51.362;6.946;2022-09-09T00:25:12;16.00;99.90
4615;DHT22;2320;51.362;6.946;2022-09-09T00:27:45;15.90;99.90
4615;DHT22;2320;51.362;6.946;2022-09-09T00:30:19;15.90;99.90
4615;DHT22;2320;51.362;6.946;2022-09-09T00:32:48;15.80;99.90
4615;DHT22;2320;51.362;6.946;2022-09-09T00:35:16;15.80;99.90
4615;DHT22;2320;51.362;6.946;2022-09-09T00:37:43;15.90;99.90
4615;DHT22;2320;51.362;6.946;2022-09-09T00:40:23;15.80;99.90
4615;DHT22;2320;51.362;6.946;2022-09-09T00:42:54;15.90;99.90
4615;DHT22;2320;51.362;6.946;2022-09-09T00:47:52;15.80;99.90
4615;DHT22;2320;51.362;6.946;2022-09-09T00:53:09;15.90;99.90
4615;DHT22;2320;51.362;6.946;2022-09-09T00:58:13;15.90;99.90
4615;DHT22;2320;51.362;6.946;2022-09-09T01:00:41;15.90;99.90
4615;DHT22;2320;51.362;6.946;2022-09-09T01:03:21;16.00;99.90
4615;DHT22;2320;51.362;6.946;2022-09-09T01:11:22;16.00;99.90
4615;DHT22;2320;51.362;6.946;2022-09-09T01:13:52;16.00;99.90
4615;DHT22;2320;51.362;6.946;2022-09-09T01:16:18;16.00;99.90
4615;DHT22;2320;51.362;6.946;2022-09-09T01:18:44;16.00;99.90
4615;DHT22;2320;51.362;6.946;2022-09-09T01:21:32;16.00;99.90
4615;DHT22;2320;51.362;6.946;2022-09-09T01:26:39;16.00;99.90
4615;DHT22;2320;51.362;6.946;2022-09-09T01:29:07;16.20;99.90
4615;DHT22;2320;51.362;6.946;2022-09-09T01:31:37;16.30;99.90
4615;DHT22;2320;51.362;6.946;2022-09-09T01:34:10;16.30;99.90
4615;DHT22;2320;51.362;6.946;2022-09-09T01:36:44;16.30;99.90
4615;DHT22;2320;51.362;6.946;2022-09-09T01:39:11;16.40;99.90
4615;DHT22;2320;51.362;6.946;2022-09-09T01:41:37;16.50;99.90
4615;DHT22;2320;51.362;6.946;2022-09-09T01:44:03;16.60;99.90
4615;DHT22;2320;51.362;6.946;2022-09-09T01:46:28;16.60;99.90
4615;DHT22;2320;51.362;6.946;2022-09-09T01:48:54;16.60;99.90
4615;DHT22;2320;51.362;6.946;2022-09-09T01:51:20;16.60;99.90
4615;DHT22;2320;51.362;6.946;2022-09-09T01:53:45;16.60;99.90
4615;DHT22;2320;51.362;6.946;2022-09-09T01:59:11;16.50;99.90
4615;DHT22;2320;51.362;6.946;2022-09-09T02:06:59;16.40;99.90
4615;DHT22;2320;51.362;6.946;2022-09-09T02:09:25;16.30;99.90
4615;DHT22;2320;51.362;6.946;2022-09-09T02:15:01;16.30;99.90
4615;DHT22;2320;51.362;6.946;2022-09-09T02:17:29;16.30;99.90
4615;DHT22;2320;51.362;6.946;2022-09-09T02:19:58;16.40;99.90
4615;DHT22;2320;51.362;6.946;2022-09-09T02:22:25;16.50;99.90
4615;DHT22;2320;51.362;6.946;2022-09-09T02:24:51;16.50;99.90
4615;DHT22;2320;51.362;6.946;2022-09-09T02:27:18;16.50;99.90
4615;DHT22;2320;51.362;6.946;2022-09-09T02:29:45;16.60;99.90
4615;DHT22;2320;51.362;6.946;2022-09-09T02:32:13;16.50;99.90
4615;DHT22;2320;51.362;6.946;2022-09-09T02:34:41;16.60;99.90
4615;DHT22;2320;51.362;6.946;2022-09-09T02:37:08;16.60;99.90
4615;DHT22;2320;51.362;6.946;2022-09-09T02:39:34;16.70;99.90
4615;DHT22;2320;51.362;6.946;2022-09-09T02:42:00;16.80;99.90
4615;DHT22;2320;51.362;6.946;2022-09-09T02:44:25;16.90;99.90
4615;DHT22;2320;51.362;6.946;2022-09-09T02:54:57;16.80;99.90
4615;DHT22;2320;51.362;6.946;2022-09-09T02:57:26;16.80;99.90
4615;DHT22;2320;51.362;6.946;2022-09-09T02:59:53;16.80;99.90
4615;DHT22;2320;51.362;6.946;2022-09-09T03:02:19;16.90;99.90
4615;DHT22;2320;51.362;6.946;2022-09-09T03:04:44;16.90;99.90
4615;DHT22;2320;51.362;6.946;2022-09-09T03:07:10;16.80;99.90
4615;DHT22;2320;51.362;6.946;2022-09-09T03:09:36;16.90;99.90
4615;DHT22;2320;51.362;6.946;2022-09-09T03:12:01;16.90;99.90
4615;DHT22;2320;51.362;6.946;2022-09-09T03:14:27;16.90;99.90
4615;DHT22;2320;51.362;6.946;2022-09-09T03:16:53;16.80;99.90
4615;DHT22;2320;51.362;6.946;2022-09-09T03:19:19;16.80;99.90
4615;DHT22;2320;51.362;6.946;2022-09-09T03:21:45;16.80;99.90
4615;DHT22;2320;51.362;6.946;2022-09-09T03:24:11;16.90;99.90
4615;DHT22;2320;51.362;6.946;2022-09-09T03:26:36;16.80;99.90
4615;DHT22;2320;51.362;6.946;2022-09-09T03:29:03;16.80;99.90
4615;DHT22;2320;51.362;6.946;2022-09-09T03:31:32;16.80;99.90
4615;DHT22;2320;51.362;6.946;2022-09-09T03:33:57;16.90;99.90
4615;DHT22;2320;51.362;6.946;2022-09-09T03:36:23;16.90;99.90
4615;DHT22;2320;51.362;6.946;2022-09-09T03:38:49;16.90;99.90
4615;DHT22;2320;51.362;6.946;2022-09-09T03:41:15;16.80;99.90
4615;DHT22;2320;51.362;6.946;2022-09-09T03:43:41;16.90;99.90
4615;DHT22;2320;51.362;6.946;2022-09-09T03:46:07;16.90;99.90
4615;DHT22;2320;51.362;6.946;2022-09-09T03:48:32;16.90;99.90
4615;DHT22;2320;51.362;6.946;2022-09-09T03:50:58;16.90;99.90
4615;DHT22;2320;51.362;6.946;2022-09-09T03:53:25;17.00;99.90
4615;DHT22;2320;51.362;6.946;2022-09-09T03:55:52;16.90;99.90
4615;DHT22;2320;51.362;6.946;2022-09-09T03:58:20;17.00;99.90
4615;DHT22;2320;51.362;6.946;2022-09-09T04:01:08;17.00;99.90
4615;DHT22;2320;51.362;6.946;2022-09-09T04:03:33;17.00;99.90
4615;DHT22;2320;51.362;6.946;2022-09-09T04:05:59;17.00;99.90
4615;DHT22;2320;51.362;6.946;2022-09-09T04:08:25;17.00;99.90
4615;DHT22;2320;51.362;6.946;2022-09-09T04:10:52;17.00;99.90
4615;DHT22;2320;51.362;6.946;2022-09-09T04:13:18;17.00;99.90
4615;DHT22;2320;51.362;6.946;2022-09-09T04:15:54;16.90;99.90
4615;DHT22;2320;51.362;6.946;2022-09-09T04:18:20;16.90;99.90
4615;DHT22;2320;51.362;6.946;2022-09-09T04:20:46;16.90;99.90
4615;DHT22;2320;51.362;6.946;2022-09-09T04:23:13;16.80;99.90
4615;DHT22;2320;51.362;6.946;2022-09-09T04:25:43;16.80;99.90
4615;DHT22;2320;51.362;6.946;2022-09-09T04:28:08;16.80;99.90
4615;DHT22;2320;51.362;6.946;2022-09-09T04:30:34;16.80;99.90
4615;DHT22;2320;51.362;6.946;2022-09-09T04:33:01;16.80;99.90
4615;DHT22;2320;51.362;6.946;2022-09-09T04:35:26;16.70;99.90
4615;DHT22;2320;51.362;6.946;2022-09-09T04:37:52;16.80;99.90
4615;DHT22;2320;51.362;6.946;2022-09-09T04:40:17;16.80;99.90
4615;DHT22;2320;51.362;6.946;2022-09-09T04:42:43;16.90;99.90
4615;DHT22;2320;51.362;6.946;2022-09-09T04:45:09;16.80;99.90
4615;DHT22;2320;51.362;6.946;2022-09-09T04:47:36;16.80;99.90
4615;DHT22;2320;51.362;6.946;2022-09-09T04:50:02;16.80;99.90
4615;DHT22;2320;51.362;6.946;2022-09-09T04:52:27;16.80;99.90
4615;DHT22;2320;51.362;6.946;2022-09-09T04:54:53;16.80;99.90
4615;DHT22;2320;51.362;6.946;2022-09-09T04:57:19;16.90;99.90
4615;DHT22;2320;51.362;6.946;2022-09-09T04:59:44;16.90;99.90
4615;DHT22;2320;51.362;6.946;2022-09-09T05:02:11;16.80;99.90
4615;DHT22;2320;51.362;6.946;2022-09-09T05:04:36;16.90;99.90
4615;DHT22;2320;51.362;6.946;2022-09-09T05:07:02;16.90;99.90
4615;DHT22;2320;51.362;6.946;2022-09-09T05:09:27;16.90;99.90
4615;DHT22;2320;51.362;6.946;2022-09-09T05:11:53;17.00;99.90
4615;DHT22;2320;51.362;6.946;2022-09-09T05:14:18;17.00;99.90
4615;DHT22;2320;51.362;6.946;2022-09-09T05:16:47;17.00;99.90
4615;DHT22;2320;51.362;6.946;2022-09-09T05:19:13;17.10;99.90
4615;DHT22;2320;51.362;6.946;2022-09-09T05:21:38;17.10;99.90
4615;DHT22;2320;51.362;6.946;2022-09-09T05:24:03;17.20;99.90
4615;DHT22;2320;51.362;6.946;2022-09-09T05:26:29;17.40;99.90
4615;DHT22;2320;51.362;6.946;2022-09-09T05:28:54;17.30;99.90
4615;DHT22;2320;51.362;6.946;2022-09-09T05:31:20;17.30;99.90
4615;DHT22;2320;51.362;6.946;2022-09-09T05:33:46;17.40;99.90
4615;DHT22;2320;51.362;6.946;2022-09-09T05:36:14;17.40;99.90
4615;DHT22;2320;51.362;6.946;2022-09-09T05:38:40;17.40;99.90
4615;DHT22;2320;51.362;6.946;2022-09-09T05:41:06;17.40;99.90
4615;DHT22;2320;51.362;6.946;2022-09-09T05:43:32;17.60;99.90
4615;DHT22;2320;51.362;6.946;2022-09-09T05:45:59;17.50;99.90
4615;DHT22;2320;51.362;6.946;2022-09-09T05:48:27;17.50;99.90
4615;DHT22;2320;51.362;6.946;2022-09-09T05:50:53;17.70;99.90
4615;DHT22;2320;51.362;6.946;2022-09-09T05:53:19;17.70;99.90
4615;DHT22;2320;51.362;6.946;2022-09-09T05:55:45;17.60;99.90
4615;DHT22;2320;51.362;6.946;2022-09-09T05:58:11;17.50;99.90
4615;DHT22;2320;51.362;6.946;2022-09-09T06:00:36;17.50;99.90
4615;DHT22;2320;51.362;6.946;2022-09-09T06:03:03;17.60;99.90
4615;DHT22;2320;51.362;6.946;2022-09-09T06:05:28;17.60;99.90
4615;DHT22;2320;51.362;6.946;2022-09-09T06:07:54;17.70;99.90
4615;DHT22;2320;51.362;6.946;2022-09-09T06:10:21;17.90;99.90
4615;DHT22;2320;51.362;6.946;2022-09-09T06:12:47;17.90;99.90
4615;DHT22;2320;51.362;6.946;2022-09-09T06:15:12;17.90;99.90
4615;DHT22;2320;51.362;6.946;2022-09-09T06:17:37;18.10;99.90
4615;DHT22;2320;51.362;6.946;2022-09-09T06:20:04;18.20;99.90
4615;DHT22;2320;51.362;6.946;2022-09-09T06:22:29;18.30;99.90
4615;DHT22;2320;51.362;6.946;2022-09-09T06:24:55;18.20;99.90
4615;DHT22;2320;51.362;6.946;2022-09-09T06:27:20;18.30;99.90
4615;DHT22;2320;51.362;6.946;2022-09-09T06:29:46;18.40;99.90
4615;DHT22;2320;51.362;6.946;2022-09-09T06:32:13;18.40;99.90
4615;DHT22;2320;51.362;6.946;2022-09-09T06:34:38;18.40;99.90
4615;DHT22;2320;51.362;6.946;2022-09-09T06:37:04;18.50;99.90
4615;DHT22;2320;51.362;6.946;2022-09-09T06:39:31;18.50;99.90
4615;DHT22;2320;51.362;6.946;2022-09-09T06:41:56;18.60;99.90
4615;DHT22;2320;51.362;6.946;2022-09-09T06:44:23;18.70;99.90
4615;DHT22;2320;51.362;6.946;2022-09-09T06:46:52;18.90;99.90
4615;DHT22;2320;51.362;6.946;2022-09-09T06:49:17;19.10;99.90
4615;DHT22;2320;51.362;6.946;2022-09-09T06:51:43;19.20;99.90
4615;DHT22;2320;51.362;6.946;2022-09-09T06:54:09;19.30;99.90
4615;DHT22;2320;51.362;6.946;2022-09-09T06:56:35;19.50;99.90
4615;DHT22;2320;51.362;6.946;2022-09-09T06:59:02;19.40;99.90
4615;DHT22;2320;51.362;6.946;2022-09-09T07:01:29;19.50;99.90
4615;DHT22;2320;51.362;6.946;2022-09-09T07:03:56;19.60;99.90
4615;DHT22;2320;51.362;6.946;2022-09-09T07:06:23;19.50;99.90
4615;DHT22;2320;51.362;6.946;2022-09-09T07:08:49;19.60;99.90
4615;DHT22;2320;51.362;6.946;2022-09-09T07:11:15;19.90;99.90
4615;DHT22;2320;51.362;6.946;2022-09-09T07:13:42;20.00;99.90
4615;DHT22;2320;51.362;6.946;2022-09-09T07:16:09;20.00;99.90
4615;DHT22;2320;51.362;6.946;2022-09-09T07:18:35;20.10;99.90
4615;DHT22;2320;51.362;6.946;2022-09-09T07:21:01;20.30;99.90
4615;DHT22;2320;51.362;6.946;2022-09-09T07:23:27;20.30;99.90
4615;DHT22;2320;51.362;6.946;2022-09-09T07:25:53;20.90;99.90
4615;DHT22;2320;51.362;6.946;2022-09-09T07:28:19;21.70;99.90
4615;DHT22;2320;51.362;6.946;2022-09-09T07:30:52;22.60;99.90
4615;DHT22;2320;51.362;6.946;2022-09-09T07:33:17;23.60;99.90
4615;DHT22;2320;51.362;6.946;2022-09-09T07:35:45;24.20;99.90
4615;DHT22;2320;51.362;6.946;2022-09-09T07:38:11;24.20;99.90
4615;DHT22;2320;51.362;6.946;2022-09-09T07:40:36;24.00;99.90
4615;DHT22;2320;51.362;6.946;2022-09-09T07:43:02;24.80;99.90
4615;DHT22;2320;51.362;6.946;2022-09-09T07:45:27;25.30;99.90
4615;DHT22;2320;51.362;6.946;2022-09-09T07:47:53;25.00;99.90
4615;DHT22;2320;51.362;6.946;2022-09-09T07:50:19;24.20;99.90
4615;DHT22;2320;51.362;6.946;2022-09-09T07:52:44;24.00;99.90
4615;DHT22;2320;51.362;6.946;2022-09-09T07:55:10;23.70;99.90
4615;DHT22;2320;51.362;6.946;2022-09-09T07:57:35;23.50;99.90
4615;DHT22;2320;51.362;6.946;2022-09-09T08:00:02;23.50;99.90
4615;DHT22;2320;51.362;6.946;2022-09-09T08:02:28;23.40;99.90
4615;DHT22;2320;51.362;6.946;2022-09-09T08:04:54;23.20;99.90
4615;DHT22;2320;51.362;6.946;2022-09-09T08:07:20;23.80;99.90
4615;DHT22;2320;51.362;6.946;2022-09-09T08:09:46;25.10;99.90
4615;DHT22;2320;51.362;6.946;2022-09-09T08:12:12;26.00;99.90
4615;DHT22;2320;51.362;6.946;2022-09-09T08:14:38;26.20;99.90
4615;DHT22;2320;51.362;6.946;2022-09-09T08:17:04;26.80;99.90
4615;DHT22;2320;51.362;6.946;2022-09-09T08:19:30;26.90;99.90
4615;DHT22;2320;51.362;6.946;2022-09-09T08:21:58;26.50;99.90
4615;DHT22;2320;51.362;6.946;2022-09-09T08:24:23;26.00;99.90
4615;DHT22;2320;51.362;6.946;2022-09-09T08:26:49;25.80;99.90
4615;DHT22;2320;51.362;6.946;2022-09-09T08:29:15;25.50;99.90
4615;DHT22;2320;51.362;6.946;2022-09-09T08:31:44;24.60;99.90
4615;DHT22;2320;51.362;6.946;2022-09-09T08:34:10;24.10;99.90
4615;DHT22;2320;51.362;6.946;2022-09-09T08:36:38;23.30;99.90
4615;DHT22;2320;51.362;6.946;2022-09-09T08:39:06;23.00;99.90
4615;DHT22;2320;51.362;6.946;2022-09-09T08:49:20;22.60;99.90
4615;DHT22;2320;51.362;6.946;2022-09-09T08:51:48;22.70;99.90
4615;DHT22;2320;51.362;6.946;2022-09-09T08:54:14;22.80;99.90
4615;DHT22;2320;51.362;6.946;2022-09-09T08:56:39;23.40;99.90
4615;DHT22;2320;51.362;6.946;2022-09-09T08:59:04;23.90;99.90
4615;DHT22;2320;51.362;6.946;2022-09-09T09:01:41;24.40;99.90
4615;DHT22;2320;51.362;6.946;2022-09-09T09:09:27;24.40;99.90
4615;DHT22;2320;51.362;6.946;2022-09-09T09:11:56;24.20;99.90
4615;DHT22;2320;51.362;6.946;2022-09-09T09:14:26;23.80;99.90
4615;DHT22;2320;51.362;6.946;2022-09-09T09:19:24;23.00;99.90
4615;DHT22;2320;51.362;6.946;2022-09-09T09:24:20;23.00;99.90
4615;DHT22;2320;51.362;6.946;2022-09-09T09:26:47;22.90;99.90
4615;DHT22;2320;51.362;6.946;2022-09-09T09:29:14;22.80;99.90
4615;DHT22;2320;51.362;6.946;2022-09-09T09:31:47;23.00;99.90
4615;DHT22;2320;51.362;6.946;2022-09-09T09:34:14;23.10;99.90
4615;DHT22;2320;51.362;6.946;2022-09-09T09:36:43;23.10;99.90
4615;DHT22;2320;51.362;6.946;2022-09-09T09:39:21;23.00;99.90
4615;DHT22;2320;51.362;6.946;2022-09-09T09:41:47;23.20;99.90
4615;DHT22;2320;51.362;6.946;2022-09-09T09:44:22;23.00;99.90
4615;DHT22;2320;51.362;6.946;2022-09-09T09:46:48;22.90;99.90
4615;DHT22;2320;51.362;6.946;2022-09-09T09:49:13;22.70;99.90
4615;DHT22;2320;51.362;6.946;2022-09-09T09:51:39;22.60;99.90
4615;DHT22;2320;51.362;6.946;2022-09-09T09:54:09;22.40;99.90
4615;DHT22;2320;51.362;6.946;2022-09-09T09:56:39;22.30;99.90
4615;DHT22;2320;51.362;6.946;2022-09-09T09:59:05;22.40;99.90
4615;DHT22;2320;51.362;6.946;2022-09-09T10:01:32;22.30;99.90
4615;DHT22;2320;51.362;6.946;2022-09-09T10:03:59;22.40;99.90
4615;DHT22;2320;51.362;6.946;2022-09-09T10:06:31;22.40;99.90
4615;DHT22;2320;51.362;6.946;2022-09-09T10:08:58;23.70;99.90
4615;DHT22;2320;51.362;6.946;2022-09-09T10:11:27;25.40;99.90
4615;DHT22;2320;51.362;6.946;2022-09-09T10:27:04;26.30;99.90
4615;DHT22;2320;51.362;6.946;2022-09-09T10:32:22;25.30;99.90
4615;DHT22;2320;51.362;6.946;2022-09-09T10:34:56;25.00;99.90
4615;DHT22;2320;51.362;6.946;2022-09-09T10:37:34;24.70;99.90
4615;DHT22;2320;51.362;6.946;2022-09-09T10:40:05;24.40;99.90
4615;DHT22;2320;51.362;6.946;2022-09-09T10:42:37;24.20;99.90
4615;DHT22;2320;51.362;6.946;2022-09-09T10:53:06;23.20;99.90
4615;DHT22;2320;51.362;6.946;2022-09-09T10:55:43;22.80;99.90
4615;DHT22;2320;51.362;6.946;2022-09-09T10:58:12;22.90;99.90
4615;DHT22;2320;51.362;6.946;2022-09-09T11:00:44;23.10;99.90
4615;DHT22;2320;51.362;6.946;2022-09-09T11:03:19;23.20;99.90
4615;DHT22;2320;51.362;6.946;2022-09-09T11:05:49;23.00;99.90
4615;DHT22;2320;51.362;6.946;2022-09-09T11:13:58;23.20;99.90
4615;DHT22;2320;51.362;6.946;2022-09-09T11:18:53;23.50;99.90
4615;DHT22;2320;51.362;6.946;2022-09-09T11:21:25;23.50;99.90
4615;DHT22;2320;51.362;6.946;2022-09-09T11:23:53;23.30;99.90
4615;DHT22;2320;51.362;6.946;2022-09-09T11:26:26;23.20;99.90
4615;DHT22;2320;51.362;6.946;2022-09-09T11:29:03;23.10;99.90
4615;DHT22;2320;51.362;6.946;2022-09-09T11:36:36;23.60;99.90
4615;DHT22;2320;51.362;6.946;2022-09-09T11:39:39;23.60;99.90
4615;DHT22;2320;51.362;6.946;2022-09-09T11:44:39;23.50;99.90
4615;DHT22;2320;51.362;6.946;2022-09-09T11:47:23;22.50;99.90
4615;DHT22;2320;51.362;6.946;2022-09-09T11:49:51;22.00;99.90
4615;DHT22;2320;51.362;6.946;2022-09-09T11:52:35;21.40;99.90
4615;DHT22;2320;51.362;6.946;2022-09-09T11:55:08;21.10;99.90
4615;DHT22;2320;51.362;6.946;2022-09-09T11:57:35;20.50;99.90
4615;DHT22;2320;51.362;6.946;2022-09-09T12:00:01;20.10;99.90
4615;DHT22;2320;51.362;6.946;2022-09-09T12:02:28;19.90;99.90
4615;DHT22;2320;51.362;6.946;2022-09-09T12:10:34;20.30;99.90
4615;DHT22;2320;51.362;6.946;2022-09-09T12:12:39;20.60;99.90
4615;DHT22;2320;51.362;6.946;2022-09-09T12:17:38;21.00;99.90
4615;DHT22;2320;51.362;6.946;2022-09-09T12:31:02;21.20;99.90
4615;DHT22;2320;51.362;6.946;2022-09-09T12:33:37;21.10;99.90
4615;DHT22;2320;51.362;6.946;2022-09-09T12:36:04;20.60;99.90
4615;DHT22;2320;51.362;6.946;2022-09-09T12:38:32;20.60;99.90
4615;DHT22;2320;51.362;6.946;2022-09-09T12:40:59;20.90;99.90
4615;DHT22;2320;51.362;6.946;2022-09-09T12:43:26;21.10;99.90
4615;DHT22;2320;51.362;6.946;2022-09-09T12:45:56;21.20;99.90
4615;DHT22;2320;51.362;6.946;2022-09-09T12:48:34;21.30;99.90
4615;DHT22;2320;51.362;6.946;2022-09-09T12:51:01;21.40;99.90
4615;DHT22;2320;51.362;6.946;2022-09-09T12:53:29;21.60;99.90
4615;DHT22;2320;51.362;6.946;2022-09-09T12:55:59;22.00;99.90
4615;DHT22;2320;51.362;6.946;2022-09-09T12:58:24;22.00;99.90
4615;DHT22;2320;51.362;6.946;2022-09-09T13:00:51;22.10;99.90
4615;DHT22;2320;51.362;6.946;2022-09-09T13:03:18;22.10;99.90
4615;DHT22;2320;51.362;6.946;2022-09-09T13:05:44;22.00;99.90
4615;DHT22;2320;51.362;6.946;2022-09-09T13:08:10;22.20;99.90
4615;DHT22;2320;51.362;6.946;2022-09-09T13:10:39;22.30;99.90
4615;DHT22;2320;51.362;6.946;2022-09-09T13:13:14;22.30;99.90
4615;DHT22;2320;51.362;6.946;2022-09-09T13:15:47;22.30;99.90
4615;DHT22;2320;51.362;6.946;2022-09-09T13:18:21;22.00;99.90
4615;DHT22;2320;51.362;6.946;2022-09-09T13:20:47;21.90;99.90
4615;DHT22;2320;51.362;6.946;2022-09-09T13:23:13;21.70;99.90
4615;DHT22;2320;51.362;6.946;2022-09-09T13:25:39;21.60;99.90
4615;DHT22;2320;51.362;6.946;2022-09-09T13:28:05;21.60;99.90
4615;DHT22;2320;51.362;6.946;2022-09-09T13:30:54;21.60;99.90
4615;DHT22;2320;51.362;6.946;2022-09-09T13:33:22;21.40;99.90
4615;DHT22;2320;51.362;6.946;2022-09-09T13:36:04;21.30;99.90
4615;DHT22;2320;51.362;6.946;2022-09-09T13:39:16;21.00;99.90
4615;DHT22;2320;51.362;6.946;2022-09-09T13:41:19;20.90;99.90
4615;DHT22;2320;51.362;6.946;2022-09-09T13:43:46;20.90;99.90
4615;DHT22;2320;51.362;6.946;2022-09-09T13:46:23;20.90;99.90
4615;DHT22;2320;51.362;6.946;2022-09-09T13:51:45;20.70;99.90
4615;DHT22;2320;51.362;6.946;2022-09-09T13:54:13;20.60;99.90
4615;DHT22;2320;51.362;6.946;2022-09-09T13:56:39;20.60;99.90
4615;DHT22;2320;51.362;6.946;2022-09-09T13:59:06;20.60;99.90
4615;DHT22;2320;51.362;6.946;2022-09-09T14:01:34;20.80;99.90
4615;DHT22;2320;51.362;6.946;2022-09-09T14:04:00;21.00;99.90
4615;DHT22;2320;51.362;6.946;2022-09-09T14:06:25;21.20;99.90
4615;DHT22;2320;51.362;6.946;2022-09-09T14:08:51;21.20;99.90
4615;DHT22;2320;51.362;6.946;2022-09-09T14:11:17;21.10;99.90
4615;DHT22;2320;51.362;6.946;2022-09-09T14:13:43;21.10;99.90
4615;DHT22;2320;51.362;6.946;2022-09-09T14:16:08;21.20;99.90
4615;DHT22;2320;51.362;6.946;2022-09-09T14:18:35;21.20;99.90
4615;DHT22;2320;51.362;6.946;2022-09-09T14:21:00;21.20;99.90
4615;DHT22;2320;51.362;6.946;2022-09-09T14:23:28;20.70;99.90
4615;DHT22;2320;51.362;6.946;2022-09-09T14:25:54;20.60;99.90
4615;DHT22;2320;51.362;6.946;2022-09-09T14:28:20;20.50;99.90
4615;DHT22;2320;51.362;6.946;2022-09-09T14:30:46;20.70;99.90
4615;DHT22;2320;51.362;6.946;2022-09-09T14:33:13;20.80;99.90
4615;DHT22;2320;51.362;6.946;2022-09-09T14:35:38;21.00;99.90
4615;DHT22;2320;51.362;6.946;2022-09-09T14:38:06;20.90;99.90
4615;DHT22;2320;51.362;6.946;2022-09-09T14:40:33;20.80;99.90
4615;DHT22;2320;51.362;6.946;2022-09-09T14:42:59;20.80;99.90
4615;DHT22;2320;51.362;6.946;2022-09-09T14:45:25;20.70;99.90
4615;DHT22;2320;51.362;6.946;2022-09-09T14:47:51;20.50;99.90
4615;DHT22;2320;51.362;6.946;2022-09-09T14:50:17;20.40;99.90
4615;DHT22;2320;51.362;6.946;2022-09-09T14:52:43;20.30;99.90
4615;DHT22;2320;51.362;6.946;2022-09-09T14:55:08;20.00;99.90
4615;DHT22;2320;51.362;6.946;2022-09-09T14:57:34;19.80;99.90
4615;DHT22;2320;51.362;6.946;2022-09-09T15:00:01;19.60;99.90
4615;DHT22;2320;51.362;6.946;2022-09-09T15:02:27;19.30;99.90
4615;DHT22;2320;51.362;6.946;2022-09-09T15:04:55;19.10;99.90
4615;DHT22;2320;51.362;6.946;2022-09-09T15:07:22;18.70;99.90
4615;DHT22;2320;51.362;6.946;2022-09-09T15:09:48;18.40;99.90
4615;DHT22;2320;51.362;6.946;2022-09-09T15:12:14;18.20;99.90
4615;DHT22;2320;51.362;6.946;2022-09-09T15:14:39;18.20;99.90
4615;DHT22;2320;51.362;6.946;2022-09-09T15:17:05;18.10;99.90
4615;DHT22;2320;51.362;6.946;2022-09-09T15:19:30;18.10;99.90
4615;DHT22;2320;51.362;6.946;2022-09-09T15:21:57;17.90;99.90
4615;DHT22;2320;51.362;6.946;2022-09-09T15:24:24;17.80;99.90
4615;DHT22;2320;51.362;6.946;2022-09-09T15:26:51;17.70;99.90
4615;DHT22;2320;51.362;6.946;2022-09-09T15:29:17;17.60;99.90
4615;DHT22;2320;51.362;6.946;2022-09-09T15:31:44;17.40;99.90
4615;DHT22;2320;51.362;6.946;2022-09-09T15:34:09;17.20;99.90
4615;DHT22;2320;51.362;6.946;2022-09-09T15:36:38;17.10;99.90
4615;DHT22;2320;51.362;6.946;2022-09-09T15:39:05;17.00;99.90
4615;DHT22;2320;51.362;6.946;2022-09-09T15:41:31;16.90;99.90
4615;DHT22;2320;51.362;6.946;2022-09-09T15:43:56;16.80;99.90
4615;DHT22;2320;51.362;6.946;2022-09-09T15:46:39;16.90;99.90
4615;DHT22;2320;51.362;6.946;2022-09-09T15:49:06;17.00;99.90
4615;DHT22;2320;51.362;6.946;2022-09-09T15:51:31;16.90;99.90
4615;DHT22;2320;51.362;6.946;2022-09-09T15:53:58;16.90;99.90
4615;DHT22;2320;51.362;6.946;2022-09-09T15:56:24;16.90;99.90
4615;DHT22;2320;51.362;6.946;2022-09-09T15:58:50;16.80;99.90
4615;DHT22;2320;51.362;6.946;2022-09-09T16:01:17;17.00;99.90
4615;DHT22;2320;51.362;6.946;2022-09-09T16:03:44;17.00;99.90
4615;DHT22;2320;51.362;6.946;2022-09-09T16:06:15;17.10;99.90
4615;DHT22;2320;51.362;6.946;2022-09-09T16:08:43;17.10;99.90
4615;DHT22;2320;51.362;6.946;2022-09-09T16:11:12;17.30;99.90
4615;DHT22;2320;51.362;6.946;2022-09-09T16:13:40;17.40;99.90
4615;DHT22;2320;51.362;6.946;2022-09-09T16:16:06;17.50;99.90
4615;DHT22;2320;51.362;6.946;2022-09-09T16:18:38;17.70;99.90
4615;DHT22;2320;51.362;6.946;2022-09-09T16:21:05;17.80;99.90
4615;DHT22;2320;51.362;6.946;2022-09-09T16:23:31;17.80;99.90
4615;DHT22;2320;51.362;6.946;2022-09-09T16:25:57;17.90;99.90
4615;DHT22;2320;51.362;6.946;2022-09-09T16:28:22;17.90;99.90
4615;DHT22;2320;51.362;6.946;2022-09-09T16:30:48;18.00;99.90
4615;DHT22;2320;51.362;6.946;2022-09-09T16:33:14;18.00;99.90
4615;DHT22;2320;51.362;6.946;2022-09-09T16:35:42;18.10;99.90
4615;DHT22;2320;51.362;6.946;2022-09-09T16:38:08;18.20;99.90
4615;DHT22;2320;51.362;6.946;2022-09-09T16:40:42;18.10;99.90
4615;DHT22;2320;51.362;6.946;2022-09-09T16:43:07;18.00;99.90
4615;DHT22;2320;51.362;6.946;2022-09-09T16:45:41;18.00;99.90
4615;DHT22;2320;51.362;6.946;2022-09-09T16:48:06;18.00;99.90
4615;DHT22;2320;51.362;6.946;2022-09-09T16:50:32;18.00;99.90
4615;DHT22;2320;51.362;6.946;2022-09-09T16:52:57;17.90;99.90
4615;DHT22;2320;51.362;6.946;2022-09-09T16:55:22;17.90;99.90
4615;DHT22;2320;51.362;6.946;2022-09-09T16:57:49;17.80;99.90
4615;DHT22;2320;51.362;6.946;2022-09-09T17:00:15;17.70;99.90
4615;DHT22;2320;51.362;6.946;2022-09-09T17:02:42;17.60;99.90
4615;DHT22;2320;51.362;6.946;2022-09-09T17:05:08;17.70;99.90
4615;DHT22;2320;51.362;6.946;2022-09-09T17:07:34;17.80;99.90
4615;DHT22;2320;51.362;6.946;2022-09-09T17:10:00;17.70;99.90
4615;DHT22;2320;51.362;6.946;2022-09-09T17:12:26;17.80;99.90
4615;DHT22;2320;51.362;6.946;2022-09-09T17:14:51;17.80;99.90
4615;DHT22;2320;51.362;6.946;2022-09-09T17:17:17;17.60;99.90
4615;DHT22;2320;51.362;6.946;2022-09-09T17:19:42;17.50;99.90
4615;DHT22;2320;51.362;6.946;2022-09-09T17:22:08;17.40;99.90
4615;DHT22;2320;51.362;6.946;2022-09-09T17:24:33;17.40;99.90
4615;DHT22;2320;51.362;6.946;2022-09-09T17:26:59;17.30;99.90
4615;DHT22;2320;51.362;6.946;2022-09-09T17:29:26;17.20;99.90
4615;DHT22;2320;51.362;6.946;2022-09-09T17:31:52;17.10;99.90
4615;DHT22;2320;51.362;6.946;2022-09-09T17:34:17;17.10;99.90
4615;DHT22;2320;51.362;6.946;2022-09-09T17:36:42;17.10;99.90
4615;DHT22;2320;51.362;6.946;2022-09-09T17:39:08;17.10;99.90
4615;DHT22;2320;51.362;6.946;2022-09-09T17:41:38;17.10;99.90
4615;DHT22;2320;51.362;6.946;2022-09-09T17:44:04;17.00;99.90
4615;DHT22;2320;51.362;6.946;2022-09-09T17:46:30;17.10;99.90
4615;DHT22;2320;51.362;6.946;2022-09-09T17:48:59;17.10;99.90
4615;DHT22;2320;51.362;6.946;2022-09-09T17:51:25;17.20;99.90
4615;DHT22;2320;51.362;6.946;2022-09-09T17:53:54;17.20;99.90
4615;DHT22;2320;51.362;6.946;2022-09-09T17:56:21;17.20;99.90
4615;DHT22;2320;51.362;6.946;2022-09-09T17:58:47;17.20;99.90
4615;DHT22;2320;51.362;6.946;2022-09-09T18:01:14;17.20;99.90
4615;DHT22;2320;51.362;6.946;2022-09-09T18:03:42;17.20;99.90
4615;DHT22;2320;51.362;6.946;2022-09-09T18:06:09;17.20;99.90
4615;DHT22;2320;51.362;6.946;2022-09-09T18:08:39;17.10;99.90